createdAt,value
2018-09-03T00:01:39.832Z,101303.00
2018-09-03T00:04:09.314Z,101306.00
2018-09-03T00:06:38.886Z,101298.00
2018-09-03T00:09:09.919Z,101294.00
2018-09-03T00:11:39.255Z,101291.00
2018-09-03T00:14:08.513Z,101287.00
2018-09-03T00:16:37.833Z,101288.00
2018-09-03T00:19:07.265Z,101285.00
2018-09-03T00:21:36.698Z,101276.00
2018-09-03T00:24:06.201Z,101276.00
2018-09-03T00:26:35.612Z,101275.00
2018-09-03T00:29:05.382Z,101275.00
2018-09-03T00:31:40.052Z,101271.00
2018-09-03T00:34:14.563Z,101278.00
2018-09-03T00:36:49.284Z,101270.00
2018-09-03T00:39:23.894Z,101265.00
2018-09-03T00:41:58.513Z,101263.00
2018-09-03T00:44:33.178Z,101276.00
2018-09-03T00:47:06.170Z,101279.00
2018-09-03T00:49:35.627Z,101270.00
2018-09-03T00:52:04.836Z,101270.00
2018-09-03T00:54:34.922Z,101267.00
2018-09-03T00:57:04.965Z,101273.00
2018-09-03T00:59:34.618Z,101271.00
2018-09-03T01:02:04.568Z,101263.00
2018-09-03T01:04:34.319Z,101261.00
2018-09-03T01:07:03.998Z,101263.00
2018-09-03T01:09:33.423Z,101257.00
2018-09-03T01:12:03.042Z,101250.00
2018-09-03T01:14:33.005Z,101246.00
2018-09-03T01:17:02.438Z,101250.00
2018-09-03T01:19:31.710Z,101236.00
2018-09-03T01:22:01.239Z,101229.00
2018-09-03T01:24:30.990Z,101226.00
2018-09-03T01:27:00.326Z,101225.00
2018-09-03T01:29:29.751Z,101234.00
2018-09-03T01:31:59.370Z,101226.00
2018-09-03T01:34:28.913Z,101223.00
2018-09-03T01:36:58.536Z,101215.00
2018-09-03T01:39:28.488Z,101226.00
2018-09-03T01:41:57.808Z,101225.00
2018-09-03T01:44:27.278Z,101231.00
2018-09-03T01:46:56.916Z,101235.00
2018-09-03T01:49:26.698Z,101225.00
2018-09-03T01:51:56.296Z,101230.00
2018-09-03T01:54:26.638Z,101229.00
2018-09-03T01:56:55.906Z,101234.00
2018-09-03T01:59:25.184Z,101233.00
2018-09-03T02:01:54.688Z,101242.00
2018-09-03T02:04:24.602Z,101239.00
2018-09-03T02:06:54.010Z,101238.00
2018-09-03T02:09:23.534Z,101239.00
2018-09-03T02:11:52.860Z,101229.00
2018-09-03T02:14:22.292Z,101227.00
2018-09-03T02:16:51.468Z,101233.00
2018-09-03T02:19:20.830Z,101224.00
2018-09-03T02:21:50.144Z,101237.00
2018-09-03T02:24:19.730Z,101228.00
2018-09-03T02:26:49.109Z,101216.00
2018-09-03T02:29:18.388Z,101214.00
2018-09-03T02:31:47.824Z,101219.00
2018-09-03T02:34:17.732Z,101220.00
2018-09-03T02:36:47.151Z,101212.00
2018-09-03T02:39:16.612Z,101214.00
2018-09-03T02:41:46.203Z,101216.00
2018-09-03T02:44:15.615Z,101218.00
2018-09-03T02:46:45.512Z,101213.00
2018-09-03T02:49:14.892Z,101214.00
2018-09-03T02:51:44.777Z,101220.00
2018-09-03T02:54:14.346Z,101210.00
2018-09-03T02:56:43.840Z,101207.00
2018-09-03T02:59:13.248Z,101206.00
2018-09-03T03:01:42.486Z,101205.00
2018-09-03T03:04:11.953Z,101195.00
2018-09-03T03:06:41.554Z,101179.00
2018-09-03T03:09:11.046Z,101176.00
2018-09-03T03:11:40.787Z,101180.00
2018-09-03T03:14:10.574Z,101164.00
2018-09-03T03:16:40.809Z,101160.00
2018-09-03T03:19:10.318Z,101165.00
2018-09-03T03:21:39.834Z,101171.00
2018-09-03T03:24:09.366Z,101177.00
2018-09-03T03:26:39.467Z,101174.00
2018-09-03T03:29:09.835Z,101177.00
2018-09-03T03:31:39.390Z,101185.00
2018-09-03T03:34:08.628Z,101188.00
2018-09-03T03:36:38.043Z,101183.00
2018-09-03T03:39:08.839Z,101189.00
2018-09-03T03:41:38.548Z,101186.00
2018-09-03T03:44:08.097Z,101182.00
2018-09-03T03:46:37.426Z,101173.00
2018-09-03T03:49:07.238Z,101163.00
2018-09-03T03:51:36.794Z,101159.00
2018-09-03T03:54:06.307Z,101148.00
2018-09-03T03:56:36.041Z,101148.00
2018-09-03T03:59:05.250Z,101138.00
2018-09-03T04:01:34.650Z,101132.00
2018-09-03T04:04:03.866Z,101135.00
2018-09-03T04:06:33.191Z,101125.00
2018-09-03T04:09:02.744Z,101129.00
2018-09-03T04:11:31.837Z,101136.00
2018-09-03T04:14:01.228Z,101134.00
2018-09-03T04:16:30.472Z,101135.00
2018-09-03T04:18:59.794Z,101141.00
2018-09-03T04:21:28.873Z,101147.00
2018-09-03T04:23:58.109Z,101148.00
2018-09-03T04:26:27.277Z,101147.00
2018-09-03T04:28:56.623Z,101149.00
2018-09-03T04:31:25.977Z,101145.00
2018-09-03T04:33:55.293Z,101150.00
2018-09-03T04:36:24.777Z,101142.00
2018-09-03T04:38:54.215Z,101144.00
2018-09-03T04:41:23.752Z,101135.00
2018-09-03T04:43:53.505Z,101143.00
2018-09-03T04:46:23.420Z,101146.00
2018-09-03T04:48:52.903Z,101151.00
2018-09-03T04:51:22.695Z,101152.00
2018-09-03T04:53:52.159Z,101162.00
2018-09-03T04:56:22.335Z,101159.00
2018-09-03T04:58:53.400Z,101154.00
2018-09-03T05:01:24.002Z,101155.00
2018-09-03T05:03:54.539Z,101163.00
2018-09-03T05:06:24.797Z,101150.00
2018-09-03T05:08:54.665Z,101157.00
2018-09-03T05:11:24.318Z,101147.00
2018-09-03T05:13:54.668Z,101147.00
2018-09-03T05:16:24.856Z,101150.00
2018-09-03T05:18:54.660Z,101142.00
2018-09-03T05:21:24.260Z,101148.00
2018-09-03T05:23:54.027Z,101147.00
2018-09-03T05:26:24.339Z,101146.00
2018-09-03T05:28:55.235Z,101144.00
2018-09-03T05:31:25.776Z,101134.00
2018-09-03T05:33:55.586Z,101137.00
2018-09-03T05:36:25.401Z,101143.00
2018-09-03T05:38:55.323Z,101119.00
2018-09-03T05:41:25.839Z,101140.00
2018-09-03T05:43:56.047Z,101140.00
2018-09-03T05:46:26.366Z,101142.00
2018-09-03T05:48:56.190Z,101135.00
2018-09-03T05:51:26.157Z,101138.00
2018-09-03T05:53:56.150Z,101134.00
2018-09-03T05:56:25.993Z,101132.00
2018-09-03T05:58:56.506Z,101140.00
2018-09-03T06:01:26.201Z,101138.00
2018-09-03T06:03:56.951Z,101128.00
2018-09-03T06:06:26.601Z,101140.00
2018-09-03T06:08:56.737Z,101144.00
2018-09-03T06:11:27.187Z,101146.00
2018-09-03T06:13:57.251Z,101144.00
2018-09-03T06:16:27.874Z,101144.00
2018-09-03T06:18:58.269Z,101136.00
2018-09-03T06:21:28.175Z,101150.00
2018-09-03T06:23:58.433Z,101157.00
2018-09-03T06:26:28.570Z,101146.00
2018-09-03T06:28:59.023Z,101148.00
2018-09-03T06:31:28.997Z,101137.00
2018-09-03T06:33:59.317Z,101137.00
2018-09-03T06:36:29.170Z,101141.00
2018-09-03T06:38:58.892Z,101134.00
2018-09-03T06:41:28.872Z,101124.00
2018-09-03T06:43:59.828Z,101122.00
2018-09-03T06:46:30.295Z,101126.00
2018-09-03T06:49:00.709Z,101120.00
2018-09-03T06:51:32.081Z,101132.00
2018-09-03T06:54:02.158Z,101110.00
2018-09-03T06:56:31.834Z,101114.00
2018-09-03T06:59:02.156Z,101107.00
2018-09-03T07:01:32.245Z,101113.00
2018-09-03T07:04:02.771Z,101116.00
2018-09-03T07:06:32.735Z,101116.00
2018-09-03T07:09:03.082Z,101108.00
2018-09-03T07:11:33.308Z,101115.00
2018-09-03T07:14:03.421Z,101128.00
2018-09-03T07:16:33.261Z,101127.00
2018-09-03T07:19:03.251Z,101122.00
2018-09-03T07:21:34.263Z,101119.00
2018-09-03T07:24:04.825Z,101114.00
2018-09-03T07:26:35.798Z,101134.00
2018-09-03T07:29:06.369Z,101132.00
2018-09-03T07:31:36.296Z,101130.00
2018-09-03T07:34:06.396Z,101129.00
2018-09-03T07:36:37.573Z,101108.00
2018-09-03T07:39:08.373Z,101105.00
2018-09-03T07:41:39.468Z,101105.00
2018-09-03T07:44:09.790Z,101101.00
2018-09-03T07:46:40.136Z,101084.00
2018-09-03T07:49:10.279Z,101094.00
2018-09-03T07:51:40.780Z,101084.00
2018-09-03T07:54:10.800Z,101089.00
2018-09-03T07:56:40.817Z,101094.00
2018-09-03T07:59:10.832Z,101086.00
2018-09-03T08:01:41.024Z,101090.00
2018-09-03T08:04:11.578Z,101078.00
2018-09-03T08:06:42.111Z,101078.00
2018-09-03T08:09:13.077Z,101071.00
2018-09-03T08:11:43.440Z,101075.00
2018-09-03T08:14:14.193Z,101079.00
2018-09-03T08:16:45.677Z,101079.00
2018-09-03T08:19:15.840Z,101079.00
2018-09-03T08:21:45.877Z,101076.00
2018-09-03T08:24:16.694Z,101063.00
2018-09-03T08:26:46.880Z,101074.00
2018-09-03T08:29:16.916Z,101062.00
2018-09-03T08:31:46.916Z,101057.00
2018-09-03T08:34:18.326Z,101051.00
2018-09-03T08:36:48.574Z,101039.00
2018-09-03T08:39:18.215Z,101049.00
2018-09-03T08:41:48.486Z,101048.00
2018-09-03T08:44:18.707Z,101050.00
2018-09-03T08:46:49.243Z,101046.00
2018-09-03T08:49:19.778Z,101047.00
2018-09-03T08:51:50.144Z,101053.00
2018-09-03T08:54:20.527Z,101053.00
2018-09-03T08:56:50.682Z,101048.00
2018-09-03T08:59:21.156Z,101045.00
2018-09-03T09:01:50.851Z,101039.00
2018-09-03T09:04:20.687Z,101044.00
2018-09-03T09:06:50.911Z,101036.00
2018-09-03T09:09:21.013Z,101035.00
2018-09-03T09:11:50.744Z,101033.00
2018-09-03T09:14:20.493Z,101027.00
2018-09-03T09:16:50.462Z,101034.00
2018-09-03T09:19:20.295Z,101037.00
2018-09-03T09:21:50.525Z,101045.00
2018-09-03T09:24:20.509Z,101043.00
2018-09-03T09:26:50.702Z,101027.00
2018-09-03T09:29:21.179Z,101033.00
2018-09-03T09:31:50.786Z,101030.00
2018-09-03T09:34:21.030Z,101031.00
2018-09-03T09:36:51.112Z,101030.00
2018-09-03T09:39:20.963Z,101026.00
2018-09-03T09:41:51.105Z,101021.00
2018-09-03T09:44:21.417Z,101025.00
2018-09-03T09:46:51.093Z,101026.00
2018-09-03T09:49:21.895Z,101020.00
2018-09-03T09:51:52.117Z,101028.00
2018-09-03T09:54:21.914Z,101018.00
2018-09-03T09:56:51.827Z,101025.00
2018-09-03T09:59:21.526Z,101027.00
2018-09-03T10:01:51.724Z,101017.00
2018-09-03T10:04:21.937Z,101022.00
2018-09-03T10:06:51.985Z,101027.00
2018-09-03T10:09:21.968Z,101019.00
2018-09-03T10:11:51.808Z,101010.00
2018-09-03T10:14:21.522Z,101012.00
2018-09-03T10:16:51.763Z,101009.00
2018-09-03T10:19:21.530Z,101002.00
2018-09-03T10:21:52.517Z,101007.00
2018-09-03T10:24:22.902Z,101012.00
2018-09-03T10:26:53.170Z,101023.00
2018-09-03T10:29:23.137Z,101019.00
2018-09-03T10:31:53.541Z,101020.00
2018-09-03T10:34:23.526Z,101012.00
2018-09-03T10:36:54.463Z,101012.00
2018-09-03T10:39:24.796Z,101017.00
2018-09-03T10:41:54.409Z,101007.00
2018-09-03T10:44:24.291Z,101014.00
2018-09-03T10:46:54.518Z,100994.00
2018-09-03T10:49:24.293Z,100994.00
2018-09-03T10:51:54.727Z,100992.00
2018-09-03T10:54:24.916Z,100997.00
2018-09-03T10:56:55.349Z,101005.00
2018-09-03T10:59:25.621Z,100981.00
2018-09-03T11:01:56.743Z,100983.00
2018-09-03T11:04:27.347Z,100984.00
2018-09-03T11:06:57.889Z,100985.00
2018-09-03T11:09:27.847Z,100988.00
2018-09-03T11:11:57.861Z,100993.00
2018-09-03T11:14:27.489Z,100985.00
2018-09-03T11:16:57.606Z,100991.00
2018-09-03T11:19:29.683Z,100985.00
2018-09-03T11:21:59.412Z,100979.00
2018-09-03T11:24:29.364Z,100975.00
2018-09-03T11:26:59.351Z,100980.00
2018-09-03T11:29:28.713Z,100966.00
2018-09-03T11:31:58.643Z,100965.00
2018-09-03T11:34:28.616Z,100972.00
2018-09-03T11:36:58.987Z,100969.00
2018-09-03T11:39:29.140Z,100966.00
2018-09-03T11:41:59.604Z,100966.00
2018-09-03T11:44:29.799Z,100962.00
2018-09-03T11:46:59.913Z,100962.00
2018-09-03T11:49:30.136Z,100968.00
2018-09-03T11:52:00.448Z,100967.00
2018-09-03T11:54:30.489Z,100950.00
2018-09-03T11:57:00.593Z,100957.00
2018-09-03T11:59:30.644Z,100955.00
2018-09-03T12:02:01.108Z,100958.00
2018-09-03T12:04:31.299Z,100952.00
2018-09-03T12:07:02.138Z,100953.00
2018-09-03T12:09:32.588Z,100941.00
2018-09-03T12:12:02.689Z,100937.00
2018-09-03T12:14:36.200Z,100944.00
2018-09-03T12:17:06.767Z,100947.00
2018-09-03T12:19:36.971Z,100935.00
2018-09-03T12:22:07.217Z,100925.00
2018-09-03T12:24:37.244Z,100929.00
2018-09-03T12:27:07.181Z,100928.00
2018-09-03T12:29:39.371Z,100921.00
2018-09-03T12:32:09.296Z,100927.00
2018-09-03T12:34:39.412Z,100921.00
2018-09-03T12:37:09.013Z,100923.00
2018-09-03T12:39:38.401Z,100924.00
2018-09-03T12:42:08.419Z,100918.00
2018-09-03T12:44:39.448Z,100923.00
2018-09-03T12:47:09.509Z,100911.00
2018-09-03T12:49:39.608Z,100903.00
2018-09-03T12:52:10.344Z,100918.00
2018-09-03T12:54:40.367Z,100908.00
2018-09-03T12:57:10.540Z,100904.00
2018-09-03T12:59:40.629Z,100903.00
2018-09-03T13:02:11.831Z,100904.00
2018-09-03T13:04:42.559Z,100897.00
2018-09-03T13:07:13.195Z,100893.00
2018-09-03T13:09:43.268Z,100893.00
2018-09-03T13:12:13.203Z,100888.00
2018-09-03T13:14:43.230Z,100891.00
2018-09-03T13:17:13.464Z,100880.00
2018-09-03T13:19:43.851Z,100879.00
2018-09-03T13:22:16.076Z,100881.00
2018-09-03T13:24:46.630Z,100873.00
2018-09-03T13:27:17.091Z,100867.00
2018-09-03T13:29:47.201Z,100858.00
2018-09-03T13:32:17.401Z,100865.00
2018-09-03T13:34:47.860Z,100855.00
2018-09-03T13:37:18.292Z,100864.00
2018-09-03T13:39:48.880Z,100866.00
2018-09-03T13:42:19.279Z,100857.00
2018-09-03T13:44:49.428Z,100856.00
2018-09-03T13:47:19.450Z,100851.00
2018-09-03T13:49:49.642Z,100836.00
2018-09-03T13:52:19.985Z,100854.00
2018-09-03T13:54:50.511Z,100844.00
2018-09-03T13:57:20.659Z,100843.00
2018-09-03T13:59:50.705Z,100844.00
2018-09-03T14:02:20.737Z,100836.00
2018-09-03T14:04:50.686Z,100845.00
2018-09-03T14:07:22.585Z,100839.00
2018-09-03T14:09:53.365Z,100852.00
2018-09-03T14:12:24.404Z,100830.00
2018-09-03T14:14:54.975Z,100827.00
2018-09-03T14:17:25.669Z,100845.00
2018-09-03T14:19:56.089Z,100829.00
2018-09-03T14:22:28.075Z,100828.00
2018-09-03T14:24:58.409Z,100824.00
2018-09-03T14:27:28.597Z,100830.00
2018-09-03T14:29:58.451Z,100830.00
2018-09-03T14:32:28.651Z,100830.00
2018-09-03T14:34:59.030Z,100818.00
2018-09-03T14:37:29.140Z,100820.00
2018-09-03T14:39:59.378Z,100811.00
2018-09-03T14:42:29.853Z,100820.00
2018-09-03T14:45:00.697Z,100820.00
2018-09-03T14:47:31.950Z,100819.00
2018-09-03T14:50:02.998Z,100820.00
2018-09-03T14:52:33.418Z,100813.00
2018-09-03T14:55:04.737Z,100814.00
2018-09-03T14:57:35.715Z,100821.00
2018-09-03T15:00:07.684Z,100814.00
2018-09-03T15:02:37.861Z,100817.00
2018-09-03T15:05:08.100Z,100813.00
2018-09-03T15:07:38.474Z,100816.00
2018-09-03T15:10:09.530Z,100810.00
2018-09-03T15:12:39.354Z,100817.00
2018-09-03T15:15:09.814Z,100810.00
2018-09-03T15:17:39.980Z,100810.00
2018-09-03T15:20:10.559Z,100809.00
2018-09-03T15:22:40.832Z,100801.00
2018-09-03T15:25:11.080Z,100812.00
2018-09-03T15:27:41.550Z,100811.00
2018-09-03T15:30:11.386Z,100811.00
2018-09-03T15:32:41.536Z,100811.00
2018-09-03T15:35:12.562Z,100809.00
2018-09-03T15:37:43.222Z,100818.00
2018-09-03T15:40:13.648Z,100806.00
2018-09-03T15:42:43.574Z,100804.00
2018-09-03T15:45:14.112Z,100815.00
2018-09-03T15:47:44.554Z,100821.00
2018-09-03T15:50:14.893Z,100820.00
2018-09-03T15:52:45.552Z,100818.00
2018-09-03T15:55:15.763Z,100824.00
2018-09-03T15:57:46.085Z,100822.00
2018-09-03T16:00:16.125Z,100821.00
2018-09-03T16:02:48.290Z,100826.00
2018-09-03T16:05:18.728Z,100831.00
2018-09-03T16:07:49.078Z,100828.00
2018-09-03T16:10:19.946Z,100843.00
2018-09-03T16:12:50.430Z,100828.00
2018-09-03T16:15:21.848Z,100831.00
2018-09-03T16:17:52.004Z,100828.00
2018-09-03T16:20:22.515Z,100839.00
2018-09-03T16:22:53.131Z,100833.00
2018-09-03T16:25:23.400Z,100838.00
2018-09-03T16:27:53.460Z,100838.00
2018-09-03T16:30:24.373Z,100834.00
2018-09-03T16:32:54.770Z,100834.00
2018-09-03T16:35:25.005Z,100832.00
2018-09-03T16:37:55.743Z,100828.00
2018-09-03T16:40:25.957Z,100833.00
2018-09-03T16:42:55.893Z,100825.00
2018-09-03T16:45:26.230Z,100828.00
2018-09-03T16:47:56.786Z,100839.00
2018-09-03T16:50:27.647Z,100825.00
2018-09-03T16:52:58.161Z,100827.00
2018-09-03T16:55:29.485Z,100828.00
2018-09-03T16:58:00.199Z,100828.00
2018-09-03T17:00:31.155Z,100829.00
2018-09-03T17:03:02.032Z,100829.00
2018-09-03T17:05:32.330Z,100831.00
2018-09-03T17:08:03.387Z,100823.00
2018-09-03T17:10:33.662Z,100832.00
2018-09-03T17:13:03.030Z,100816.00
2018-09-03T17:15:35.927Z,100823.00
2018-09-03T17:18:10.432Z,100819.00
2018-09-03T17:20:41.947Z,100819.00
2018-09-03T17:23:13.691Z,100823.00
2018-09-03T17:25:44.864Z,100808.00
2018-09-03T17:28:15.321Z,100823.00
2018-09-03T17:30:46.450Z,100817.00
2018-09-03T17:33:17.538Z,100822.00
2018-09-03T17:35:48.472Z,100823.00
2018-09-03T17:38:18.888Z,100836.00
2018-09-03T17:40:48.905Z,100821.00
2018-09-03T17:43:19.238Z,100832.00
2018-09-03T17:45:49.955Z,100832.00
2018-09-03T17:48:20.787Z,100830.00
2018-09-03T17:50:51.216Z,100846.00
2018-09-03T17:53:21.442Z,100825.00
2018-09-03T17:55:51.764Z,100837.00
2018-09-03T17:58:21.622Z,100831.00
2018-09-03T18:00:51.370Z,100831.00
2018-09-03T18:03:20.980Z,100835.00
2018-09-03T18:05:50.568Z,100834.00
2018-09-03T18:08:20.172Z,100845.00
2018-09-03T18:10:49.655Z,100844.00
2018-09-03T18:13:18.961Z,100836.00
2018-09-03T18:15:48.360Z,100844.00
2018-09-03T18:18:17.626Z,100830.00
2018-09-03T18:20:46.683Z,100844.00
2018-09-03T18:23:16.225Z,100832.00
2018-09-03T18:25:45.598Z,100846.00
2018-09-03T18:28:14.919Z,100839.00
2018-09-03T18:30:44.120Z,100835.00
2018-09-03T18:33:13.324Z,100859.00
2018-09-03T18:35:42.605Z,100852.00
2018-09-03T18:38:11.741Z,100843.00
2018-09-03T18:40:41.400Z,100854.00
2018-09-03T18:43:11.343Z,100857.00
2018-09-03T18:45:40.979Z,100857.00
2018-09-03T18:48:10.595Z,100860.00
2018-09-03T18:50:40.109Z,100863.00
2018-09-03T18:53:09.348Z,100874.00
2018-09-03T18:55:38.718Z,100872.00
2018-09-03T18:58:08.120Z,100871.00
2018-09-03T19:00:37.689Z,100868.00
2018-09-03T19:03:07.517Z,100869.00
2018-09-03T19:05:37.321Z,100862.00
2018-09-03T19:08:06.876Z,100872.00
2018-09-03T19:10:36.103Z,100872.00
2018-09-03T19:13:05.478Z,100875.00
2018-09-03T19:15:35.104Z,100874.00
2018-09-03T19:18:04.713Z,100868.00
2018-09-03T19:20:34.229Z,100870.00
2018-09-03T19:23:03.732Z,100868.00
2018-09-03T19:25:33.128Z,100870.00
2018-09-03T19:28:02.634Z,100868.00
2018-09-03T19:30:32.065Z,100874.00
2018-09-03T19:33:01.510Z,100863.00
2018-09-03T19:35:30.811Z,100877.00
2018-09-03T19:38:00.159Z,100870.00
2018-09-03T19:40:29.675Z,100883.00
2018-09-03T19:42:59.373Z,100875.00
2018-09-03T19:45:28.588Z,100876.00
2018-09-03T19:47:58.059Z,100886.00
2018-09-03T19:50:27.540Z,100877.00
2018-09-03T19:52:57.179Z,100870.00
2018-09-03T19:55:26.616Z,100869.00
2018-09-03T19:57:55.823Z,100867.00
2018-09-03T20:00:25.245Z,100869.00
2018-09-03T20:02:55.191Z,100877.00
2018-09-03T20:05:24.639Z,100856.00
2018-09-03T20:07:54.103Z,100867.00
2018-09-03T20:10:23.644Z,100873.00
2018-09-03T20:12:53.175Z,100870.00
2018-09-03T20:15:27.927Z,100877.00
2018-09-03T20:17:57.237Z,100877.00
2018-09-03T20:20:26.579Z,100874.00
2018-09-03T20:22:56.114Z,100882.00
2018-09-03T20:25:25.535Z,100879.00
2018-09-03T20:27:54.989Z,100871.00
2018-09-03T20:30:24.407Z,100881.00
2018-09-03T20:32:53.947Z,100880.00
2018-09-03T20:35:23.548Z,100871.00
2018-09-03T20:37:53.094Z,100884.00
2018-09-03T20:40:22.363Z,100885.00
2018-09-03T20:42:51.661Z,100884.00
2018-09-03T20:45:20.996Z,100874.00
2018-09-03T20:47:50.575Z,100888.00
2018-09-03T20:50:20.077Z,100884.00
2018-09-03T20:52:49.406Z,100896.00
2018-09-03T20:55:18.716Z,100888.00
2018-09-03T20:57:48.102Z,100885.00
2018-09-03T21:00:17.614Z,100890.00
2018-09-03T21:02:47.662Z,100894.00
2018-09-03T21:05:17.097Z,100889.00
2018-09-03T21:07:46.761Z,100890.00
2018-09-03T21:10:16.120Z,100901.00
2018-09-03T21:12:45.375Z,100900.00
2018-09-03T21:15:14.764Z,100882.00
2018-09-03T21:17:44.332Z,100885.00
2018-09-03T21:20:13.862Z,100895.00
2018-09-03T21:22:43.608Z,100892.00
2018-09-03T21:25:13.138Z,100901.00
2018-09-03T21:27:42.783Z,100901.00
2018-09-03T21:30:12.969Z,100907.00
2018-09-03T21:32:42.474Z,100910.00
2018-09-03T21:35:11.799Z,100912.00
2018-09-03T21:37:41.157Z,100922.00
2018-09-03T21:40:10.573Z,100920.00
2018-09-03T21:42:39.825Z,100915.00
2018-09-03T21:45:09.365Z,100918.00
2018-09-03T21:47:38.589Z,100917.00
2018-09-03T21:50:07.977Z,100921.00
2018-09-03T21:52:37.305Z,100921.00
2018-09-03T21:55:06.789Z,100922.00
2018-09-03T21:57:36.221Z,100925.00
2018-09-03T22:00:05.770Z,100914.00
2018-09-03T22:02:35.219Z,100916.00
2018-09-03T22:05:04.897Z,100915.00
2018-09-03T22:07:34.444Z,100915.00
2018-09-03T22:10:03.788Z,100925.00
2018-09-03T22:12:34.031Z,100917.00
2018-09-03T22:15:03.377Z,100922.00
2018-09-03T22:17:32.667Z,100918.00
2018-09-03T22:20:02.492Z,100919.00
2018-09-03T22:22:31.805Z,100914.00
2018-09-03T22:25:01.257Z,100909.00
2018-09-03T22:27:30.690Z,100906.00
2018-09-03T22:29:59.882Z,100903.00
2018-09-03T22:32:29.097Z,100901.00
2018-09-03T22:34:58.300Z,100898.00
2018-09-03T22:37:27.705Z,100907.00
2018-09-03T22:39:57.050Z,100899.00
2018-09-03T22:42:27.636Z,100902.00
2018-09-03T22:44:58.010Z,100906.00
2018-09-03T22:47:27.217Z,100917.00
2018-09-03T22:49:56.545Z,100903.00
2018-09-03T22:52:25.742Z,100908.00
2018-09-03T22:54:55.237Z,100898.00
2018-09-03T22:57:24.570Z,100906.00
2018-09-03T22:59:54.060Z,100904.00
2018-09-03T23:02:23.525Z,100905.00
2018-09-03T23:04:53.349Z,100904.00
2018-09-03T23:07:22.562Z,100901.00
2018-09-03T23:09:51.933Z,100909.00
2018-09-03T23:12:21.414Z,100907.00
2018-09-03T23:14:50.714Z,100908.00
2018-09-03T23:17:20.202Z,100911.00
2018-09-03T23:19:49.580Z,100902.00
2018-09-03T23:22:18.906Z,100912.00
2018-09-03T23:24:48.366Z,100901.00
2018-09-03T23:27:17.663Z,100907.00
2018-09-03T23:29:47.151Z,100905.00
2018-09-03T23:32:16.540Z,100901.00
2018-09-03T23:34:45.804Z,100901.00
2018-09-03T23:37:15.163Z,100911.00
2018-09-03T23:39:44.289Z,100909.00
2018-09-03T23:42:13.688Z,100898.00
2018-09-03T23:44:43.362Z,100897.00
2018-09-03T23:47:12.604Z,100901.00
2018-09-03T23:49:41.802Z,100898.00
2018-09-03T23:52:11.099Z,100890.00
2018-09-03T23:54:40.515Z,100895.00
2018-09-03T23:57:09.746Z,100892.00
2018-09-03T23:59:39.103Z,100895.00
